Flight Track Log - Related Links

Times and Time Zones

All times are in EST time to prevent confusion due to time zone crossing. See the TRS688 flight status page for this flight to view local times or setup timezone preferences in your user account.

Time Position Orientation Groundspeed Altitude Reporting Facility
EST Latitude Longitude Course Direction KTS MPH feet Rate Location/Type
Tue 08:25:38 PM 42.9333 -87.9000 157° South 134 154 2,200  Level KMKE
Tue 08:26:53 PM 42.8783 -87.8675 157° South 225 259 4,200 2,058 Climbing Chicago Center
Tue 08:27:55 PM 42.8244 -87.8111 142° Southeast 242 278 6,900 2,806 Climbing Chicago Center
Tue 08:28:57 PM 42.7472 -87.7911 169° South 270 311 10,000 3,171 Climbing Chicago Center
Tue 08:29:58 PM 42.6558 -87.7761 173° South 285 328 13,400 2,927 Climbing Chicago Center
Tue 08:31:00 PM 42.5714 -87.7642 174° South 302 348 16,000 2,226 Climbing Chicago Center
Tue 08:32:02 PM 42.4892 -87.7256 161° South 334 384 18,000 1,984 Climbing Chicago Center
Tue 08:33:04 PM 42.3953 -87.6764 159° South 357 411 20,100 2,565 Climbing Chicago Center
Tue 08:34:06 PM 42.2736 -87.6133 159° South 388 447 23,300 2,613 Climbing Chicago Center
Tue 08:35:08 PM 42.2053 -87.4956 128° Southeast 421 484 25,500 1,984 Climbing Chicago Center
Tue 08:36:10 PM 42.1783 -87.3422 103° East 421 484 27,400 1,790 Climbing Chicago Center
Tue 08:37:12 PM 42.1481 -87.1822 104° East 436 502 29,200 1,645 Climbing Chicago Center
Tue 08:38:14 PM 42.1169 -87.0161 104° East 451 519 30,800 1,610 Climbing Chicago Center
Tue 08:39:15 PM 42.0831 -86.8472 105° East 465 535 32,500 1,659 Climbing Chicago Center
Tue 08:40:17 PM 42.0478 -86.6578 104° East 470 541 34,200 1,403 Climbing Chicago Center
Tue 08:41:19 PM 42.0142 -86.4856 105° East 475 547 35,400 1,161 Climbing Chicago Center
Tue 08:42:21 PM 41.9794 -86.3133 105° East 479 551 36,600 774 Climbing Chicago Center
Tue 08:43:23 PM 41.9458 -86.1397 105° East 481 554 37,000 195 Climbing Chicago Center
Tue 08:44:24 PM 41.9103 -85.9672 105° East 480 552 37,000  Level Chicago Center
Tue 08:45:26 PM 41.8756 -85.7928 105° East 482 555 37,000  Level Chicago Center
Tue 08:46:28 PM 41.8331 -85.5831 105° East 483 556 37,000  Level Chicago Center
Tue 08:47:30 PM 41.7956 -85.4025 106° East 489 563 37,000  Level Chicago Center
Tue 08:48:32 PM 41.7592 -85.2258 105° East 485 558 37,000  Level Chicago Center
Tue 08:49:33 PM 41.7222 -85.0483 106° East 488 562 37,000  Level Chicago Center
Tue 08:50:35 PM 41.6850 -84.8692 105° East 494 568 37,000  Level Chicago Center
Tue 08:51:37 PM 41.6631 -84.6892 99° East 495 570 37,000  Level Chicago Center
Tue 08:52:09 PM 41.6583 -84.5789 93° East 494 568 37,000  Level Cleveland Center
Tue 08:53:11 PM 41.6503 -84.3961 93° East 493 567 37,000  Level Cleveland Center
Tue 08:54:13 PM 41.6406 -84.2044 94° East 493 567 37,000  Level Cleveland Center
Tue 08:55:15 PM 41.6333 -84.0228 93° East 492 566 37,000  Level Cleveland Center
Tue 08:56:16 PM 41.6242 -83.8408 94° East 494 568 37,000  Level Cleveland Center
Tue 08:57:18 PM 41.6153 -83.6608 94° East 491 565 37,000  Level Cleveland Center
Tue 08:58:19 PM 41.6036 -83.4794 95° East 494 568 37,000  Level Cleveland Center
Tue 08:59:21 PM 41.5892 -83.2986 96° East 495 570 37,000  Level Cleveland Center
Tue 09:00:23 PM 41.5744 -83.0969 96° East 501 577 37,000  Level Cleveland Center
Tue 09:01:24 PM 41.5603 -82.9106 96° East 500 575 37,000  Level Cleveland Center
Tue 09:02:26 PM 41.5425 -82.6922 96° East 503 579 37,000  Level Cleveland Center
Tue 09:03:28 PM 41.5239 -82.5089 98° East 497 572 37,000  Level Cleveland Center
Tue 09:04:30 PM 41.4594 -82.3456 118° Southeast 495 570 37,000  Level Cleveland Center
Tue 09:05:31 PM 41.3792 -82.2003 126° Southeast 487 560 37,000  Level Cleveland Center
Tue 09:06:33 PM 41.2847 -82.0858 138° Southeast 469 540 37,000  Level Cleveland Center
Tue 09:07:35 PM 41.1825 -81.9789 142° Southeast 466 536 37,000  Level Cleveland Center
Tue 09:08:37 PM 41.0775 -81.8717 142° Southeast 469 540 37,000  Level Cleveland Center
Tue 09:09:39 PM 40.9547 -81.7489 143° Southeast 473 544 37,000  Level Cleveland Center
Tue 09:10:40 PM 40.8506 -81.6444 143° Southeast 470 541 37,000  Level Cleveland Center
Tue 09:11:42 PM 40.7458 -81.5386 143° Southeast 471 542 37,000  Level Cleveland Center
Tue 09:12:44 PM 40.6403 -81.4322 143° Southeast 472 543 37,000  Level Cleveland Center
Tue 09:13:45 PM 40.5386 -81.3308 143° Southeast 470 541 37,000  Level Cleveland Center
Tue 09:14:47 PM 40.4350 -81.2281 143° Southeast 469 540 37,000  Level Cleveland Center
Tue 09:15:49 PM 40.3328 -81.1275 143° Southeast 465 535 37,000  Level Cleveland Center
Tue 09:16:50 PM 40.2094 -81.0050 143° Southeast 463 533 37,000  Level Cleveland Center
Tue 09:17:52 PM 40.1097 -80.9069 143° Southeast 456 525 37,000  Level Cleveland Center
Tue 09:18:54 PM 40.0103 -80.8081 143° Southeast 453 521 37,000  Level Cleveland Center
Tue 09:19:55 PM 39.9225 -80.6856 133° Southeast 467 537 37,000 -146 Level Cleveland Center
Tue 09:20:57 PM 39.8339 -80.5631 133° Southeast 467 537 36,700 -435 Descending Cleveland Center
Tue 09:21:59 PM 39.7442 -80.4378 133° Southeast 474 545 36,100 -683 Descending Cleveland Center
Tue 09:23:00 PM 39.6342 -80.2878 134° Southeast 481 554 35,300 -634 Descending Cleveland Center
Tue 09:24:02 PM 39.5433 -80.1628 133° Southeast 479 551 34,800 -537 Descending Cleveland Center
Tue 09:25:03 PM 39.4519 -80.0389 134° Southeast 479 551 34,200 -878 Descending Cleveland Center
Tue 09:26:05 PM 39.3592 -79.9125 133° Southeast 484 557 33,000 -1,839 Descending Cleveland Center
Tue 09:27:07 PM 39.2936 -79.7567 118° Southeast 504 580 30,400 -2,164 Descending Cleveland Center
Tue 09:28:07 PM 39.2789 -79.5761 96° East 478 550 28,600 -1,729 Descending Washington Center
Tue 09:29:05 PM 39.2636 -79.4036 96° East 481 554 27,000 -1,613 Descending Washington Center
Tue 09:30:06 PM 39.2461 -79.2311 97° East 481 554 25,400 -1,537 Descending Washington Center
Tue 09:31:06 PM 39.2319 -79.0725 97° East 464 534 23,900 -1,513 Descending Washington Center
Tue 09:32:05 PM 39.2194 -78.9244 96° East 441 507 22,400 -1,450 Descending Washington Center
Tue 09:33:06 PM 39.2047 -78.7764 97° East 417 480 21,000 -1,636 Descending Washington Center
Tue 09:34:06 PM 39.1897 -78.6392 98° East 406 467 19,100 -1,587 Descending Washington Center
Tue 09:35:07 PM 39.1783 -78.5022 96° East 388 447 17,800 -1,059 Descending Washington Center
Tue 09:36:05 PM 39.1628 -78.3675 98° East 383 441 17,000 -1,008 Descending Washington Center
Tue 09:37:06 PM 39.1342 -78.2461 107° East 363 418 15,800 -1,190 Descending Washington Center
Tue 09:38:06 PM 39.1014 -78.1219 109° East 363 418 14,600 -1,210 Descending Washington Center
Tue 09:39:05 PM 39.0725 -78.0058 108° East 358 412 13,400 -1,150 Descending Washington Center
Tue 09:40:06 PM 39.0417 -77.8872 108° East 348 400 12,300 -1,190 Descending Washington Center
Tue 09:41:06 PM 39.0125 -77.7661 107° East 337 388 11,000 -1,091 Descending Washington Center
Tue 09:42:07 PM 38.9833 -77.6586 109° East 326 375 10,100 -1,008 Descending Washington Center
Tue 09:43:05 PM 38.9494 -77.5589 114° Southeast 312 359 9,000 -1,030 Descending Washington Center
Tue 09:44:21 PM 38.9000 -77.4333 117° Southeast 293 337 7,800 -918 Descending Potomac TRACON
Tue 09:46:21 PM 38.8333 -77.2500 115° Southeast 276 318 6,000 -597 Descending Potomac TRACON
Tue 09:47:22 PM 38.7833 -77.1667 128° Southeast 276 318 6,000 -397 Level Potomac TRACON
Tue 09:48:22 PM 38.7500 -77.1167 131° Southeast 247 284 5,200 -1,150 Descending Potomac TRACON
Tue 09:49:22 PM 38.6833 -77.1000 169° South 235 270 3,700 -1,286 Descending Potomac TRACON
Tue 09:50:28 PM 38.6833 -77.0167 90° East 204 235 2,500 -632 Descending Potomac TRACON
Tue 09:51:16 PM 38.7167 -77.0167 360° North 153 176 2,500 -421 Level Potomac TRACON
Tue 09:52:22 PM 38.7667 -77.0333 345° North 159 183 1,700 -800 Descending Potomac TRACON
Tue 09:53:16 PM 38.8000 -77.0333 360° North 124 143 900 -684 Descending Potomac TRACON
Tue 09:54:16 PM 38.8333 -77.0333 360° North 113 130 400 -500 Descending Potomac TRACON

Login

Don't have an account? Register now (free) for customized features, flight alerts, and more!